Latest Coastal Weather Observations for Rundle Island

IDQ60701

Issued at 2:12 pm EST Wednesday 27 May 2015 (issued every 10 minutes, with the page automatically refreshed every 10 minutes)

About coastal observations | Map of coastal stations | Coastal observations for QLD | Marine services | Other Formats
Station Details ID: 039322 Name: RUNDLE ISLAND Lat: -23.53 Lon: 151.28 Height: 19.8 m
Data from the previous 72 hours. | See also: Recent months at Rundle Island
Date/Time
EST
Temp

°C
Wind Pressure Rain
since 9am
mm
Weather Cloud Vis
km
Sea
Height
m
Swell
Dir
 
Speed
knots
Gust
knots
hPa Trend Height
m
Period
s
Dir
27/02:00pm 21.4 SE 14 16 1020.1 - - - - - - - - -
27/01:30pm 21.5 SE 14 16 1020.3 - - - - - - - - -
27/01:00pm 21.5 SE 13 15 1020.5 - - - - - - - - -
27/12:30pm 21.5 SSE 11 12 1021.2 - - - - - - - - -
27/12:00pm 21.4 SSE 10 12 1021.9 - - - - - - - - -
27/11:30am 20.9 SSE 12 13 1022.4 - - - - - - - - -
27/11:00am 20.9 SSE 12 14 1022.7 - - - - - - - - -
27/10:30am 20.5 SSE 13 16 1022.7 - - - - - - - - -
27/10:00am 20.4 SSE 14 16 1022.8 - - - - - - - - -
27/09:30am 20.1 SSE 15 17 1022.8 - - - - - - - - -
27/09:00am 19.7 SSE 15 17 1023.0 - - - - - - - - -
27/08:30am 19.9 S 14 17 1023.2 - - - - - - - - -
27/08:00am 19.4 S 15 17 1022.7 - - - - - - - - -
27/07:30am 19.4 SSE 15 17 1022.6 - - - - - - - - -
27/07:00am 19.2 SSE 16 18 1022.1 - - - - - - - - -
27/06:30am 19.1 S 15 17 1021.9 - - - - - - - - -
27/06:00am 19.3 S 15 16 1021.7 - - - - - - - - -
27/05:30am 19.5 S 14 16 1021.3 - - - - - - - - -
27/05:00am 19.7 SSE 15 17 1021.1 - - - - - - - - -
27/04:30am 19.7 SSE 14 16 1020.9 - - - - - - - - -
27/04:00am 19.7 SSE 14 17 1021.1 - - - - - - - - -
27/03:30am 19.7 SSE 16 18 1021.2 - - - - - - - - -
27/03:00am 19.8 S 15 17 1021.4 - - - - - - - - -
27/02:30am 19.6 S 13 15 1021.6 - - - - - - - - -
27/02:00am 19.7 S 13 14 1021.7 - - - - - - - - -
27/01:30am 20.5 SSE 14 15 1022.0 - - - - - - - - -
27/01:00am 20.5 SE 14 17 1022.3 - - - - - - - - -
27/12:30am 20.5 SE 14 15 1022.3 - - - - - - - - -
27/12:00am 20.6 SE 14 17 1022.4 - - - - - - - - -
 
Date/Time
EST
Temp

°C
Wind Pressure Rain
since 9am
mm
Weather Cloud Vis
km
Sea
Height
m
Swell
Dir
 
Speed
knots
Gust
knots
hPa Trend Height
m
Period
s
Dir
26/11:30pm 20.8 SE 16 18 1022.6 - - - - - - - - -
26/11:00pm 21.0 SE 16 18 1022.8 - - - - - - - - -
26/10:30pm 21.1 SE 16 18 1023.2 - - - - - - - - -
26/10:00pm 21.2 SE 15 17 1023.3 - - - - - - - - -
26/09:30pm 21.2 SE 15 16 1023.5 - - - - - - - - -
26/09:00pm 21.0 SE 14 16 1023.5 - - - - - - - - -
26/08:30pm 21.3 SE 16 17 1023.7 - - - - - - - - -
26/08:00pm 21.3 SE 17 20 1023.7 - - - - - - - - -
26/07:30pm 21.5 SE 18 20 1023.4 - - - - - - - - -
26/07:00pm 21.5 SE 17 19 1023.3 - - - - - - - - -
26/06:30pm 21.5 SE 15 17 1023.1 - - - - - - - - -
26/06:00pm 21.4 SE 13 15 1022.7 - - - - - - - - -
26/05:30pm 21.1 SSE 12 14 1022.4 - - - - - - - - -
26/05:00pm 20.9 SSE 10 12 1022.4 - - - - - - - - -
26/04:30pm 20.6 S 10 11 1022.1 - - - - - - - - -
26/04:00pm 20.9 SSE 11 15 1022.0 - - - - - - - - -
26/03:30pm 21.4 SE 16 18 1021.9 - - - - - - - - -
26/03:00pm 20.0 SE 19 22 1022.2 - - - - - - - - -
26/02:30pm 20.8 SSE 14 17 1022.6 - - - - - - - - -
26/02:00pm 20.4 SSE 11 14 1022.9 - - - - - - - - -
26/01:30pm 20.1 SE 9 14 1023.2 - - - - - - - - -
26/01:00pm 20.5 SE 13 17 1023.5 - - - - - - - - -
26/12:30pm 20.2 SE 13 15 1024.1 - - - - - - - - -
26/12:00pm 19.5 SE 16 20 1024.8 - - - - - - - - -
26/11:30am 19.5 SE 15 18 1025.4 - - - - - - - - -
26/11:00am 19.9 SSE 16 19 1025.6 - - - - - - - - -
26/10:30am 19.9 SSE 18 20 1025.6 - - - - - - - - -
26/10:00am 19.9 SSE 18 21 1025.9 - - - - - - - - -
26/09:30am 20.0 SE 18 21 1025.6 - - - - - - - - -
26/09:00am 19.5 SE 20 23 1025.6 - - - - - - - - -
26/08:30am 19.4 SE 19 22 1025.7 - - - - - - - - -
26/08:00am 18.2 SE 16 18 1025.8 - - - - - - - - -
26/07:30am 19.4 SE 16 20 1026.1 - - - - - - - - -
26/07:00am 19.1 SSE 16 19 1025.8 - - - - - - - - -
26/06:30am 19.0 S 16 19 1025.5 - - - - - - - - -
26/06:00am 19.1 S 17 20 1025.6 - - - - - - - - -
26/05:30am 19.5 S 16 18 1025.3 - - - - - - - - -
26/05:00am 19.5 S 16 18 1024.8 - - - - - - - - -
26/04:30am 19.5 S 17 20 1024.6 - - - - - - - - -
26/04:00am 20.1 SSE 21 24 1024.4 - - - - - - - - -
26/03:30am 20.1 SSE 21 24 1024.4 - - - - - - - - -
26/03:00am 20.0 SSE 21 25 1024.5 - - - - - - - - -
26/02:30am 19.5 SSE 22 26 1024.7 - - - - - - - - -
26/02:00am 20.4 SSE 21 23 1024.9 - - - - - - - - -
26/01:30am 20.4 SSE 20 24 1025.1 - - - - - - - - -
26/01:00am 20.3 SSE 24 27 1025.0 - - - - - - - - -
26/12:30am 20.4 SSE 23 26 1025.3 - - - - - - - - -
26/12:00am 20.4 SSE 20 25 1025.3 - - - - - - - - -
 
Date/Time
EST
Temp

°C
Wind Pressure Rain
since 9am
mm
Weather Cloud Vis
km
Sea
Height
m
Swell
Dir
 
Speed
knots
Gust
knots
hPa Trend Height
m
Period
s
Dir
25/11:30pm 20.2 SSE 19 21 1025.8 - - - - - - - - -
25/11:00pm 20.0 SSE 19 22 1026.1 - - - - - - - - -
25/10:30pm 19.8 SSE 22 26 1026.6 - - - - - - - - -
25/10:00pm 19.1 SSE 22 26 1026.6 - - - - - - - - -
25/09:30pm 19.6 SE 24 28 1026.2 - - - - - - - - -
25/09:00pm 20.2 SE 19 23 1026.5 - - - - - - - - -
25/08:30pm 19.3 SE 20 25 1026.6 - - - - - - - - -
25/08:00pm 20.6 SE 24 27 1026.0 - - - - - - - - -
25/07:30pm 20.6 SSE 24 28 1025.4 - - - - - - - - -
25/07:00pm 20.2 SE 22 25 1025.4 - - - - - - - - -
25/06:30pm 20.4 SE 23 26 1025.5 - - - - - - - - -
25/06:19pm 21.2 SE 15 22 1025.4 - - - - - - - - -
25/06:00pm 21.5 SE 6 11 1025.2 - - - - - - - - -
25/05:30pm 19.8 ESE 23 27 1024.9 - - - - - - - - -
25/05:00pm 21.2 SE 23 27 1025.0 - - - - - - - - -
25/04:30pm 21.5 SE 22 24 1024.8 - - - - - - - - -
25/04:00pm 21.8 SE 18 20 1024.4 - - - - - - - - -
25/03:30pm 21.5 SE 19 21 1024.5 - - - - - - - - -
25/03:00pm 21.6 SE 20 23 1024.8 - - - - - - - - -
25/02:30pm 21.4 SE 18 21 1024.7 - - - - - - - - -
25/02:00pm 21.1 SE 21 24 1024.7 - - - - - - - - -
25/01:30pm 21.7 SE 21 23 1024.8 - - - - - - - - -
25/01:00pm 21.7 SE 18 21 1025.0 - - - - - - - - -
25/12:30pm 21.7 SE 22 24 1025.3 - - - - - - - - -
25/12:00pm 21.8 SE 20 23 1025.7 - - - - - - - - -
25/11:30am 21.0 SSE 19 21 1026.2 - - - - - - - - -
25/11:00am 20.9 SE 20 23 1026.6 - - - - - - - - -
25/10:30am 20.6 SSE 20 23 1027.0 - - - - - - - - -
25/10:00am 20.4 SSE 23 26 1027.3 - - - - - - - - -
25/09:30am 20.4 SE 22 27 1027.3 - - - - - - - - -
25/09:00am 20.0 SSE 23 26 1026.9 - - - - - - - - -
25/08:30am 19.9 SSE 23 27 1026.3 - - - - - - - - -
25/08:00am 19.6 SSE 23 27 1025.9 - - - - - - - - -
25/07:30am 19.6 SSE 22 27 1026.4 - - - - - - - - -
25/07:00am 18.7 SE 18 22 1026.4 - - - - - - - - -
25/06:30am 18.8 SE 21 26 1025.9 - - - - - - - - -
25/06:00am 18.0 SE 23 28 1025.6 - - - - - - - - -
25/05:30am 19.0 SE 21 25 1025.3 - - - - - - - - -
25/05:00am 19.0 SSE 23 27 1025.4 - - - - - - - - -
25/04:30am 19.7 SSE 25 29 1024.8 - - - - - - - - -
25/04:00am 19.0 SSE 23 26 1025.0 - - - - - - - - -
25/03:30am 19.0 SSE 20 23 1025.1 - - - - - - - - -
25/03:00am 18.7 SSE 22 26 1024.9 - - - - - - - - -
25/02:30am 19.1 SSE 23 27 1025.1 - - - - - - - - -
25/02:00am 19.6 SSE 24 28 1025.6 - - - - - - - - -
25/01:30am 18.6 SSE 21 26 1026.0 - - - - - - - - -
25/01:00am 19.7 SSE 23 27 1026.1 - - - - - - - - -
25/12:30am 19.9 SE 22 26 1025.9 - - - - - - - - -
25/12:00am 19.8 SSE 22 25 1025.9 - - - - - - - - -
 
Date/Time
EST
Temp

°C
Wind Pressure Rain
since 9am
mm
Weather Cloud Vis
km
Sea
Height
m
Swell
Dir
 
Speed
knots
Gust
knots
hPa Trend Height
m
Period
s
Dir
24/11:30pm 19.7 SE 20 24 1026.0 - - - - - - - - -
24/11:00pm 20.0 SE 24 27 1026.1 - - - - - - - - -
24/10:30pm 20.1 SE 23 26 1026.1 - - - - - - - - -
24/10:00pm 20.3 SE 23 27 1026.1 - - - - - - - - -
24/09:30pm 20.4 SE 24 28 1026.2 - - - - - - - - -
24/09:00pm 20.8 SE 24 28 1026.2 - - - - - - - - -
24/08:30pm 20.9 SE 23 28 1026.0 - - - - - - - - -
24/08:00pm 21.2 SE 24 27 1025.8 - - - - - - - - -
24/07:30pm 21.5 SE 25 30 1025.6 - - - - - - - - -
24/07:00pm 21.3 SE 26 29 1025.2 - - - - - - - - -
24/06:30pm 21.6 SE 26 30 1024.9 - - - - - - - - -
24/06:00pm 21.7 SE 25 29 1024.6 - - - - - - - - -
24/05:30pm 21.8 SE 25 28 1024.5 - - - - - - - - -
24/05:00pm 21.8 SE 25 29 1024.2 - - - - - - - - -
24/04:30pm 21.8 SE 26 29 1023.8 - - - - - - - - -
24/04:00pm 21.8 SE 24 28 1023.6 - - - - - - - - -
24/03:30pm 21.6 SE 25 28 1023.3 - - - - - - - - -
24/03:00pm 21.8 SE 24 29 1023.4 - - - - - - - - -
24/02:30pm 21.9 SE 23 26 1023.4 - - - - - - - - -

Other Formats:

Comma delimited format used in spreadsheet applications
http://www.bom.gov.au/fwo/IDQ60701/IDQ60701.94378.axf

JavaScript Object Notation format (JSON) in row-major order
http://www.bom.gov.au/fwo/IDQ60701/IDQ60701.94378.json